Time;durP1;ratioP1;P1;durP2;ratioP2;P2;SDS_P1;SDS_P2;PMS_P1;PMS_P2;Temp;Humidity;BMP_temperature;BMP_pressure;BME280_temperature;BME280_humidity;BME280_pressure;Samples;Min_cycle;Max_cycle;Signal;HPM_P1;HPM_P2
2021/12/31 00:01:32;;;;;;;88.30;29.10;;;;;;;-3.36;83.61;101460.12;105035;1271;60576;-77
2021/12/31 00:04:01;;;;;;;67.60;24.20;;;;;;;-3.29;83.72;101462.65;105017;1271;71571;-77
2021/12/31 00:06:31;;;;;;;88.30;27.80;;;;;;;-3.26;83.17;101464.02;104957;1271;70310;-82
2021/12/31 00:09:00;;;;;;;82.70;29.10;;;;;;;-3.25;83.08;101466.04;105045;1274;67877;-82
2021/12/31 00:11:30;;;;;;;74.40;28.40;;;;;;;-3.31;83.46;101463.16;104954;1271;74429;-81
2021/12/31 00:13:59;;;;;;;75.10;26.80;;;;;;;-3.29;83.39;101461.80;105125;1270;59437;-80
2021/12/31 00:16:28;;;;;;;79.80;28.60;;;;;;;-3.30;83.73;101460.61;104838;1270;60048;-76
2021/12/31 00:18:57;;;;;;;75.00;26.80;;;;;;;-3.32;83.84;101452.78;104887;1270;71742;-77
2021/12/31 00:21:32;;;;;;;75.70;25.20;;;;;;;-3.23;83.88;101451.73;104802;1271;69920;-76
2021/12/31 00:24:01;;;;;;;78.50;27.20;;;;;;;-3.20;83.90;101460.90;104918;1271;70581;-77
2021/12/31 00:26:31;;;;;;;73.50;25.80;;;;;;;-3.15;83.58;101465.51;104685;1274;74457;-82
2021/12/31 00:29:00;;;;;;;75.00;25.80;;;;;;;-3.16;83.46;101462.61;104842;1271;60928;-81
2021/12/31 00:31:29;;;;;;;72.70;24.60;;;;;;;-3.14;83.50;101464.82;104891;1271;61528;-82
2021/12/31 00:33:58;;;;;;;74.80;25.70;;;;;;;-3.16;83.58;101462.95;104884;1271;74637;-83
2021/12/31 00:36:45;;;;;;;77.00;26.80;;;;;;;-3.15;83.74;101456.64;105071;1269;71346;-84
2021/12/31 00:39:15;;;;;;;71.70;24.90;;;;;;;-3.11;84.23;101443.50;105035;1271;69370;-80
2021/12/31 00:41:43;;;;;;;78.50;27.80;;;;;;;-3.05;83.91;101436.14;104983;1270;74299;-76
2021/12/31 00:44:13;;;;;;;74.50;24.20;;;;;;;-3.02;83.42;101425.56;104883;1270;62017;-79
2021/12/31 00:46:42;;;;;;;77.60;26.30;;;;;;;-3.07;84.04;101423.04;104978;1271;62910;-77
2021/12/31 00:49:12;;;;;;;73.20;24.80;;;;;;;-3.09;83.88;101423.21;105175;1271;72435;-78
2021/12/31 00:51:41;;;;;;;67.40;24.30;;;;;;;-3.06;83.81;101420.81;104770;1271;71994;-77
2021/12/31 00:54:10;;;;;;;65.10;23.70;;;;;;;-3.07;83.47;101431.89;105089;1271;69978;-81
2021/12/31 00:56:39;;;;;;;70.40;25.40;;;;;;;-3.08;84.25;101438.89;105076;1268;73883;-81
2021/12/31 00:59:07;;;;;;;72.00;23.90;;;;;;;-3.12;83.95;101441.98;104915;1272;61776;-76
2021/12/31 01:01:37;;;;;;;69.40;24.70;;;;;;;-3.12;83.94;101436.70;104920;1270;61841;-81
2021/12/31 01:04:06;;;;;;;71.00;25.20;;;;;;;-3.15;84.40;101431.94;105141;1271;74234;-80
2021/12/31 01:06:35;;;;;;;74.80;26.80;;;;;;;-3.08;84.53;101433.61;104931;1274;71737;-77
2021/12/31 01:09:04;;;;;;;71.10;25.60;;;;;;;-2.97;83.99;101428.27;104934;1271;68131;-78
2021/12/31 01:11:33;;;;;;;75.50;25.50;;;;;;;-2.98;84.11;101423.67;104993;1269;72685;-76
2021/12/31 01:14:08;;;;;;;85.40;27.30;;;;;;;-2.94;83.79;101419.21;105038;1270;60185;-81
2021/12/31 01:16:40;;;;;;;65.60;23.80;;;;;;;-2.93;83.76;101413.23;104930;1270;60776;-77
2021/12/31 01:21:38;;;;;;;73.50;25.10;;;;;;;-2.92;83.96;101413.40;105006;1271;73110;-77
2021/12/31 01:24:07;;;;;;;70.70;25.00;;;;;;;-2.91;83.79;101420.05;104922;1273;68659;-78
2021/12/31 01:26:36;;;;;;;73.10;25.10;;;;;;;-2.87;83.81;101418.65;105063;1270;72926;-80
2021/12/31 01:29:05;;;;;;;69.90;25.30;;;;;;;-2.81;83.59;101416.59;104623;1270;59255;-80
2021/12/31 01:31:34;;;;;;;66.60;24.00;;;;;;;-2.86;83.34;101409.11;105009;1270;58925;-81
2021/12/31 01:34:03;;;;;;;65.10;24.00;;;;;;;-2.85;83.37;101407.58;104922;1271;71669;-84
2021/12/31 01:36:32;;;;;;;75.50;24.90;;;;;;;-2.82;83.39;101411.47;105033;1271;73249;-81
2021/12/31 01:39:03;;;;;;;73.60;22.80;;;;;;;-2.89;83.51;101404.17;105058;1270;70319;-81
2021/12/31 01:41:31;;;;;;;78.50;25.50;;;;;;;-2.97;83.89;101403.55;104987;1271;73492;-79
2021/12/31 01:44:06;;;;;;;65.70;23.50;;;;;;;-2.99;84.15;101398.63;104979;1270;59703;-78
2021/12/31 01:46:40;;;;;;;78.50;26.20;;;;;;;-3.00;84.07;101390.61;104992;1271;60421;-76
2021/12/31 01:49:20;;;;;;;76.00;26.50;;;;;;;-2.96;84.32;101389.91;104952;1270;71624;-78
2021/12/31 01:51:49;;;;;;;75.60;26.80;;;;;;;-2.89;84.21;101380.49;104924;1270;71904;-81
2021/12/31 01:54:18;;;;;;;67.70;24.50;;;;;;;-2.84;84.07;101376.71;105089;1271;67831;-78
2021/12/31 01:56:49;;;;;;;78.40;25.00;;;;;;;-2.82;84.07;101376.54;104982;1273;71932;-81
2021/12/31 01:59:19;;;;;;;72.40;24.90;;;;;;;-2.79;84.12;101370.19;104903;1271;58851;-77
2021/12/31 02:01:48;;;;;;;77.50;26.40;;;;;;;-2.80;83.94;101366.80;104694;1270;60474;-79
2021/12/31 02:04:18;;;;;;;77.10;24.30;;;;;;;-2.77;84.04;101360.28;104872;1268;73644;-76
2021/12/31 02:06:48;;;;;;;77.10;25.20;;;;;;;-2.75;83.96;101365.39;105817;1270;72831;-78
2021/12/31 02:09:17;;;;;;;67.70;24.70;;;;;;;-2.75;83.71;101376.48;104795;1271;69032;-79
2021/12/31 02:11:46;;;;;;;72.60;23.30;;;;;;;-2.73;83.41;101375.61;104848;1270;72344;-77
2021/12/31 02:14:16;;;;;;;76.90;24.70;;;;;;;-2.75;83.50;101373.75;105202;1272;60424;-79
2021/12/31 02:16:45;;;;;;;76.00;23.90;;;;;;;-2.76;83.84;101374.77;104675;1273;60238;-77
2021/12/31 02:19:17;;;;;;;75.40;25.30;;;;;;;-2.67;83.73;101363.29;104763;1273;74447;-78
2021/12/31 02:21:46;;;;;;;74.00;26.40;;;;;;;-2.68;83.50;101355.28;104908;1271;73072;-78
2021/12/31 02:24:17;;;;;;;79.20;24.70;;;;;;;-2.64;83.67;101355.95;104926;1270;70246;-78
2021/12/31 02:26:45;;;;;;;72.70;26.00;;;;;;;-2.61;83.47;101348.91;105004;1270;74392;-80
2021/12/31 02:29:14;;;;;;;76.60;25.00;;;;;;;-2.58;83.86;101349.73;104913;1270;58979;-80
2021/12/31 02:31:43;;;;;;;78.80;24.10;;;;;;;-2.62;83.35;101351.31;104946;1274;58923;-78
2021/12/31 02:34:12;;;;;;;77.90;26.60;;;;;;;-2.57;83.81;101348.05;104864;1271;71669;-80
2021/12/31 02:36:41;;;;;;;71.10;25.70;;;;;;;-2.58;83.41;101351.98;104955;1269;69588;-75
2021/12/31 02:39:10;;;;;;;83.40;27.00;;;;;;;-2.56;83.70;101348.71;104929;1269;68100;-79
2021/12/31 02:41:39;;;;;;;78.20;25.90;;;;;;;-2.56;83.52;101342.90;104869;1271;71994;-77
2021/12/31 02:44:08;;;;;;;82.10;29.20;;;;;;;-2.61;83.45;101341.59;104701;1270;59956;-77
2021/12/31 02:46:37;;;;;;;90.60;29.10;;;;;;;-2.63;83.64;101339.90;104741;1269;61449;-80
2021/12/31 02:49:06;;;;;;;78.50;25.80;;;;;;;-2.66;83.40;101349.13;104649;1274;72296;-76
2021/12/31 02:51:35;;;;;;;79.20;23.70;;;;;;;-2.63;83.60;101346.03;104484;1274;70320;-74
2021/12/31 02:54:09;;;;;;;74.70;25.70;;;;;;;-2.68;83.63;101350.67;104680;1272;68657;-77
2021/12/31 02:56:39;;;;;;;79.90;25.60;;;;;;;-2.62;83.75;101352.16;104502;1275;73615;-78
2021/12/31 02:59:10;;;;;;;71.60;22.50;;;;;;;-2.61;83.75;101347.05;104636;1272;60859;-78
2021/12/31 03:01:40;;;;;;;69.80;23.10;;;;;;;-2.61;83.57;101340.57;104738;1271;59491;-78
2021/12/31 03:04:10;;;;;;;71.40;23.50;;;;;;;-2.64;84.22;101335.14;104626;1273;70907;-78
2021/12/31 03:06:42;;;;;;;69.10;23.00;;;;;;;-2.64;83.74;101338.04;104741;1271;70257;-78
2021/12/31 03:09:12;;;;;;;76.30;24.60;;;;;;;-2.66;83.94;101330.20;104914;1269;70928;-79
2021/12/31 03:11:42;;;;;;;73.00;24.70;;;;;;;-2.69;84.10;101331.25;104918;1271;75906;-79
2021/12/31 03:14:12;;;;;;;74.10;26.30;;;;;;;-2.79;84.32;101318.70;104667;1273;63319;-79
2021/12/31 03:16:43;;;;;;;70.20;26.10;;;;;;;-2.91;84.65;101316.06;104923;1271;60018;-83
2021/12/31 03:19:12;;;;;;;73.40;25.40;;;;;;;-2.86;84.59;101321.32;104845;1274;72515;-80
2021/12/31 03:21:41;;;;;;;80.20;27.90;;;;;;;-2.91;84.84;101325.96;105003;1272;72098;-79
2021/12/31 03:24:11;;;;;;;80.50;27.30;;;;;;;-2.88;84.84;101325.77;104966;1270;70075;-82
2021/12/31 03:26:40;;;;;;;72.00;25.70;;;;;;;-2.84;84.65;101330.16;104644;1274;74750;-79
2021/12/31 03:29:08;;;;;;;73.70;25.90;;;;;;;-2.75;84.81;101331.13;105007;1274;59218;-82
2021/12/31 03:31:37;;;;;;;73.70;26.00;;;;;;;-2.73;84.76;101323.42;105052;1271;59089;-79
2021/12/31 03:34:06;;;;;;;71.50;24.00;;;;;;;-2.68;84.45;101325.78;104983;1271;73132;-77
2021/12/31 03:36:35;;;;;;;71.60;24.20;;;;;;;-2.66;84.34;101326.80;105007;1270;71856;-78
2021/12/31 03:39:04;;;;;;;65.60;23.30;;;;;;;-2.68;84.22;101321.19;104994;1271;70162;-80
2021/12/31 03:41:33;;;;;;;65.60;23.60;;;;;;;-2.58;84.30;101317.02;104954;1271;74005;-79
2021/12/31 03:44:04;;;;;;;66.20;21.60;;;;;;;-2.58;84.45;101319.56;104994;1268;60896;-78
2021/12/31 03:46:33;;;;;;;70.70;23.20;;;;;;;-2.56;84.51;101316.98;105144;1274;59407;-78
2021/12/31 03:49:02;;;;;;;70.10;24.30;;;;;;;-2.48;84.38;101313.86;105020;1272;72036;-80
2021/12/31 03:51:31;;;;;;;65.60;25.20;;;;;;;-2.50;84.01;101318.46;105002;1272;69586;-79
2021/12/31 03:54:00;;;;;;;63.50;22.40;;;;;;;-2.56;84.27;101319.39;105034;1270;69494;-79
2021/12/31 03:56:32;;;;;;;60.20;23.10;;;;;;;-2.69;84.56;101318.97;105042;1271;72737;-77
2021/12/31 03:59:01;;;;;;;64.70;22.80;;;;;;;-2.63;84.61;101321.33;104985;1273;60406;-77
2021/12/31 04:01:29;;;;;;;64.60;22.90;;;;;;;-2.65;84.39;101317.57;104927;1271;62051;-78
2021/12/31 04:03:59;;;;;;;68.60;22.90;;;;;;;-2.65;84.78;101314.67;104940;1270;73272;-78
2021/12/31 04:06:28;;;;;;;65.70;23.30;;;;;;;-2.60;84.41;101319.58;104797;1273;71594;-78
2021/12/31 04:08:57;;;;;;;71.50;24.60;;;;;;;-2.56;84.40;101322.61;104767;1271;70486;-80
2021/12/31 04:11:26;;;;;;;70.70;24.30;;;;;;;-2.50;84.62;101318.47;104719;1274;74919;-77
2021/12/31 04:13:55;;;;;;;65.80;21.50;;;;;;;-2.53;84.34;101314.75;104857;1271;59981;-78
2021/12/31 04:16:24;;;;;;;58.80;20.40;;;;;;;-2.46;84.32;101321.86;104751;1271;60042;-77
2021/12/31 04:18:53;;;;;;;64.90;20.90;;;;;;;-2.44;84.08;101320.98;104842;1271;70936;-78
2021/12/31 04:21:24;;;;;;;59.50;21.00;;;;;;;-2.38;84.12;101310.00;104915;1273;71423;-77
2021/12/31 04:24:14;;;;;;;59.60;20.70;;;;;;;-2.40;84.15;101312.57;104845;1273;70879;-77
2021/12/31 04:26:43;;;;;;;60.20;21.50;;;;;;;-2.39;83.96;101305.59;104852;1270;71780;-79
2021/12/31 04:29:12;;;;;;;58.60;20.60;;;;;;;-2.38;84.31;101299.92;104931;1271;59096;-78
2021/12/31 04:31:41;;;;;;;57.30;21.10;;;;;;;-2.39;84.33;101312.39;104875;1274;60677;-78
2021/12/31 04:34:10;;;;;;;61.10;21.60;;;;;;;-2.40;84.26;101302.69;104945;1273;72013;-80
2021/12/31 04:36:39;;;;;;;57.20;20.70;;;;;;;-2.36;84.20;101299.06;104919;1270;70942;-76
2021/12/31 04:39:08;;;;;;;62.70;21.20;;;;;;;-2.35;84.07;101298.02;104730;1270;70846;-77
2021/12/31 04:41:37;;;;;;;56.70;20.60;;;;;;;-2.28;84.29;101292.67;104932;1274;72931;-79
2021/12/31 04:44:06;;;;;;;51.60;20.00;;;;;;;-2.27;83.91;101288.56;104965;1274;61352;-78
2021/12/31 04:46:35;;;;;;;60.80;21.40;;;;;;;-2.22;84.32;101292.10;104907;1274;59051;-78
2021/12/31 04:49:06;;;;;;;58.70;21.10;;;;;;;-2.15;84.04;101295.95;104989;1271;73657;-77
2021/12/31 04:51:39;;;;;;;53.40;20.70;;;;;;;-2.13;83.67;101297.30;104871;1273;72150;-78
2021/12/31 04:54:14;;;;;;;56.00;20.20;;;;;;;-2.14;83.61;101293.02;105104;1273;69114;-79
2021/12/31 04:56:43;;;;;;;55.70;19.60;;;;;;;-2.13;83.60;101299.16;104880;1273;71935;-80
2021/12/31 04:59:12;;;;;;;57.60;22.10;;;;;;;-2.15;83.95;101304.14;104819;1268;59150;-79
2021/12/31 05:01:41;;;;;;;55.20;20.30;;;;;;;-2.15;83.83;101308.91;104848;1271;59149;-78
2021/12/31 05:04:11;;;;;;;57.10;19.90;;;;;;;-2.07;84.06;101306.27;104905;1271;73586;-79
2021/12/31 05:06:41;;;;;;;55.50;19.20;;;;;;;-2.06;83.86;101308.14;104880;1273;68935;-81
2021/12/31 05:09:10;;;;;;;54.40;19.90;;;;;;;-1.98;83.75;101307.55;104939;1270;69744;-75
2021/12/31 05:11:39;;;;;;;56.20;22.10;;;;;;;-1.96;84.25;101295.07;104885;1272;73850;-73
2021/12/31 05:14:09;;;;;;;58.70;20.60;;;;;;;-1.95;83.79;101293.51;104850;1273;58851;-78
2021/12/31 05:16:38;;;;;;;55.20;20.10;;;;;;;-1.93;83.98;101286.14;104904;1271;58991;-79
2021/12/31 05:19:07;;;;;;;53.70;19.80;;;;;;;-1.92;83.71;101285.63;104762;1268;72716;-78
2021/12/31 05:21:36;;;;;;;51.70;18.40;;;;;;;-1.86;83.72;101287.94;104948;1272;70319;-79
2021/12/31 05:24:05;;;;;;;51.50;20.50;;;;;;;-1.86;83.74;101283.68;104876;1273;67918;-80
2021/12/31 05:26:34;;;;;;;54.30;20.80;;;;;;;-1.92;83.77;101273.33;104880;1273;72035;-79
2021/12/31 05:29:03;;;;;;;57.30;20.80;;;;;;;-1.92;84.16;101261.55;104936;1271;58927;-79
2021/12/31 05:31:32;;;;;;;54.40;20.30;;;;;;;-1.88;84.04;101257.41;104891;1269;61341;-77
2021/12/31 05:34:01;;;;;;;60.40;20.30;;;;;;;-1.82;83.90;101260.75;104970;1274;74636;-79
2021/12/31 05:36:30;;;;;;;54.70;21.30;;;;;;;-1.78;83.69;101269.40;104924;1271;72242;-78
2021/12/31 05:38:58;;;;;;;54.20;19.40;;;;;;;-1.77;83.54;101270.59;104902;1273;70271;-78
2021/12/31 05:41:28;;;;;;;47.80;17.30;;;;;;;-1.77;83.75;101278.44;104843;1274;75419;-78
2021/12/31 05:43:58;;;;;;;53.00;19.50;;;;;;;-1.74;83.55;101275.85;104720;1271;61595;-78
2021/12/31 05:46:27;;;;;;;51.40;19.60;;;;;;;-1.75;83.94;101268.86;104736;1273;59829;-79
2021/12/31 05:48:56;;;;;;;51.10;19.40;;;;;;;-1.73;83.83;101266.43;104711;1273;73446;-77
2021/12/31 05:51:27;;;;;;;48.40;17.70;;;;;;;-1.74;83.77;101269.19;104683;1270;71657;-78
2021/12/31 05:53:57;;;;;;;54.30;19.30;;;;;;;-1.68;83.76;101267.58;104614;1273;70405;-73
2021/12/31 05:56:26;;;;;;;52.50;20.10;;;;;;;-1.66;83.51;101267.54;104573;1269;73342;-79
2021/12/31 05:58:55;;;;;;;50.50;19.40;;;;;;;-1.68;84.19;101263.81;104610;1271;60311;-76
2021/12/31 06:01:23;;;;;;;46.20;17.90;;;;;;;-1.65;83.82;101263.09;104718;1274;61070;-81
2021/12/31 06:03:53;;;;;;;48.90;19.90;;;;;;;-1.59;83.36;101268.81;104759;1271;74633;-80
2021/12/31 06:06:21;;;;;;;49.20;17.80;;;;;;;-1.69;83.81;101271.33;104638;1273;71927;-81
2021/12/31 06:08:50;;;;;;;43.90;18.00;;;;;;;-1.64;83.41;101273.31;104687;1272;70012;-75
2021/12/31 06:11:20;;;;;;;49.10;17.90;;;;;;;-1.63;83.83;101269.91;104740;1273;73365;-80
2021/12/31 06:13:55;;;;;;;43.80;17.00;;;;;;;-1.54;83.45;101269.27;104703;1270;60339;-80
2021/12/31 06:16:29;;;;;;;48.10;19.20;;;;;;;-1.47;83.12;101271.55;104515;1274;59885;-80
2021/12/31 06:18:58;;;;;;;55.80;21.80;;;;;;;-1.47;83.10;101274.11;104495;1274;73615;-83
2021/12/31 06:21:27;;;;;;;47.60;18.40;;;;;;;-1.45;83.08;101269.30;104708;1271;73148;-80
2021/12/31 06:23:56;;;;;;;43.40;18.80;;;;;;;-1.44;83.04;101253.91;104702;1271;69819;-81
2021/12/31 06:26:31;;;;;;;48.10;18.80;;;;;;;-1.44;83.08;101256.30;104749;1273;71482;-83
2021/12/31 06:29:00;;;;;;;46.20;18.10;;;;;;;-1.34;83.28;101261.98;104573;1274;62215;-82
2021/12/31 06:31:29;;;;;;;46.30;18.40;;;;;;;-1.37;82.86;101263.22;104731;1273;62993;-81
2021/12/31 06:33:58;;;;;;;46.10;18.50;;;;;;;-1.35;82.84;101264.73;104672;1271;72816;-82
2021/12/31 06:36:27;;;;;;;44.10;18.60;;;;;;;-1.27;82.59;101265.64;104818;1270;70608;-80
2021/12/31 06:38:58;;;;;;;49.60;19.90;;;;;;;-1.23;82.47;101262.85;104836;1274;68649;-80
2021/12/31 06:41:26;;;;;;;48.30;20.20;;;;;;;-1.14;82.74;101261.67;104699;1274;73611;-83
2021/12/31 06:43:56;;;;;;;44.70;19.30;;;;;;;-1.04;82.56;101270.41;105107;1273;62205;-80
2021/12/31 06:46:24;;;;;;;45.00;19.20;;;;;;;-0.92;82.20;101269.36;105176;1271;62816;-79
2021/12/31 06:48:53;;;;;;;44.50;19.60;;;;;;;-0.82;81.96;101264.42;104934;1272;72695;-73
2021/12/31 06:51:22;;;;;;;50.90;18.80;;;;;;;-0.78;81.41;101266.77;105044;1274;69022;-80
2021/12/31 06:53:51;;;;;;;42.30;18.60;;;;;;;-0.73;81.34;101266.67;105080;1268;68725;-82
2021/12/31 06:56:20;;;;;;;45.70;19.60;;;;;;;-0.74;81.26;101262.58;105167;1270;73919;-83
2021/12/31 06:58:49;;;;;;;46.30;21.20;;;;;;;-0.69;81.43;101261.80;105929;1273;60124;-80
2021/12/31 07:01:18;;;;;;;52.90;20.10;;;;;;;-0.68;81.10;101265.89;105158;1274;61347;-81
2021/12/31 07:03:48;;;;;;;45.30;18.70;;;;;;;-0.62;81.00;101263.05;104947;1269;71566;-78
2021/12/31 07:06:17;;;;;;;43.60;18.80;;;;;;;-0.48;80.89;101270.86;104763;1274;71459;-81
2021/12/31 07:08:45;;;;;;;40.10;18.80;;;;;;;-0.45;80.36;101274.55;105087;1272;70881;-82
2021/12/31 07:11:17;;;;;;;40.20;18.70;;;;;;;-0.48;80.56;101271.02;104760;1274;71674;-85
2021/12/31 07:13:45;;;;;;;41.10;19.00;;;;;;;-0.43;80.49;101275.21;104739;1274;59225;-84
2021/12/31 07:16:14;;;;;;;39.40;20.00;;;;;;;-0.42;80.12;101273.82;104976;1272;61151;-79
2021/12/31 07:18:44;;;;;;;45.40;21.40;;;;;;;-0.49;80.99;101279.93;104855;1273;72969;-79
2021/12/31 07:21:13;;;;;;;47.10;19.10;;;;;;;-0.36;80.51;101280.05;104814;1271;71256;-82
2021/12/31 07:23:42;;;;;;;37.70;18.30;;;;;;;-0.38;80.79;101282.65;104905;1272;70339;-83
2021/12/31 07:26:11;;;;;;;42.40;19.70;;;;;;;-0.25;80.14;101283.77;105023;1272;71074;-82
2021/12/31 07:28:40;;;;;;;41.00;20.70;;;;;;;-0.16;79.78;101287.73;105088;1272;60940;-80
2021/12/31 07:31:14;;;;;;;38.40;18.80;;;;;;;-0.28;79.92;101285.55;105176;1272;60916;-83
2021/12/31 07:33:43;;;;;;;48.90;19.90;;;;;;;-0.32;80.00;101283.73;104800;1273;73246;-81
2021/12/31 07:36:16;;;;;;;;;;;;;;;-0.21;79.92;101278.23;104802;1271;70990;-85
2021/12/31 07:38:54;;;;;;;41.90;19.30;;;;;;;-0.21;79.62;101275.33;104909;1273;70504;-84
2021/12/31 07:41:23;;;;;;;42.00;19.20;;;;;;;-0.26;79.96;101276.43;104960;1273;72679;-88
2021/12/31 07:43:52;;;;;;;37.50;18.10;;;;;;;-0.13;81.23;101280.82;104963;1271;59786;-81
2021/12/31 07:46:21;;;;;;;42.30;20.30;;;;;;;-0.03;80.19;101282.86;104802;1274;59113;-85
2021/12/31 07:48:50;;;;;;;41.00;19.70;;;;;;;0.02;80.19;101279.50;105050;1274;71618;-81
2021/12/31 07:51:19;;;;;;;44.00;20.50;;;;;;;0.15;79.65;101282.84;104973;1273;69548;-87
2021/12/31 07:53:48;;;;;;;42.80;19.80;;;;;;;0.21;78.81;101289.41;104846;1274;67901;-76
2021/12/31 07:56:19;;;;;;;41.60;19.10;;;;;;;0.20;78.35;101289.08;104738;1274;73114;-84
2021/12/31 07:58:47;;;;;;;42.20;18.10;;;;;;;0.14;78.89;101282.33;105094;1270;63068;-83
2021/12/31 08:01:17;;;;;;;37.40;19.00;;;;;;;0.14;79.19;101280.30;104988;1271;60496;-84
2021/12/31 08:03:46;;;;;;;39.00;19.70;;;;;;;0.20;78.96;101283.42;105022;1271;71657;-80
2021/12/31 08:06:15;;;;;;;44.30;21.70;;;;;;;0.53;78.70;101290.77;104925;1271;69284;-77
2021/12/31 08:08:44;;;;;;;43.40;19.10;;;;;;;0.68;78.44;101297.13;104942;1273;69592;-77
2021/12/31 08:11:13;;;;;;;38.50;18.60;;;;;;;0.82;77.82;101296.15;104789;1273;74813;-80
2021/12/31 08:13:41;;;;;;;42.00;20.50;;;;;;;0.95;76.87;101299.61;105004;1274;60035;-79
2021/12/31 08:16:10;;;;;;;42.90;20.70;;;;;;;0.99;76.43;101305.69;105025;1274;59441;-76
2021/12/31 08:18:39;;;;;;;43.30;20.10;;;;;;;0.88;76.69;101310.58;105041;1272;71661;-90
2021/12/31 08:21:09;;;;;;;39.90;19.80;;;;;;;0.83;77.14;101311.39;105090;1274;70185;-88
2021/12/31 08:23:38;;;;;;;48.90;23.10;;;;;;;0.97;76.89;101312.27;105037;1274;70475;-83
2021/12/31 08:26:07;;;;;;;38.90;19.40;;;;;;;0.89;77.00;101317.42;104750;1271;73710;-84
2021/12/31 08:28:36;;;;;;;46.00;21.40;;;;;;;0.95;77.60;101316.60;104723;1272;61203;-88
2021/12/31 08:31:04;;;;;;;43.40;20.00;;;;;;;1.00;77.15;101320.93;104603;1275;60752;-84
2021/12/31 08:33:33;;;;;;;45.00;20.20;;;;;;;1.01;76.84;101313.88;104834;1274;72239;-83
2021/12/31 08:36:03;;;;;;;46.50;22.60;;;;;;;1.13;77.23;101304.18;104804;1273;70284;-83
2021/12/31 08:38:33;;;;;;;45.00;20.60;;;;;;;1.14;76.96;101298.65;104992;1274;70013;-90
2021/12/31 08:41:02;;;;;;;44.30;21.70;;;;;;;1.19;76.55;101283.78;105200;1271;71163;-87
2021/12/31 08:43:48;;;;;;;45.00;20.60;;;;;;;1.15;76.61;101276.17;105087;1272;60357;-90
2021/12/31 08:46:18;;;;;;;40.20;19.80;;;;;;;1.16;77.19;101275.62;105138;1271;59024;-90
2021/12/31 08:48:49;;;;;;;47.70;20.40;;;;;;;1.40;76.89;101276.90;105022;1274;71602;-86
2021/12/31 08:51:18;;;;;;;40.60;19.80;;;;;;;1.37;75.71;101270.64;104880;1270;72417;-87
2021/12/31 08:53:56;;;;;;;46.00;20.00;;;;;;;1.46;75.41;101272.45;104814;1274;71056;-89
2021/12/31 08:56:26;;;;;;;47.00;21.60;;;;;;;1.59;75.00;101279.33;104717;1274;71616;-87
2021/12/31 08:58:55;;;;;;;46.20;23.20;;;;;;;1.83;74.45;101273.04;104651;1274;59747;-85
2021/12/31 09:01:23;;;;;;;44.40;22.70;;;;;;;1.88;73.95;101272.89;104618;1274;60289;-86
2021/12/31 09:03:52;;;;;;;42.20;20.60;;;;;;;1.81;73.84;101272.91;104746;1275;72269;-83
2021/12/31 09:06:21;;;;;;;49.20;22.50;;;;;;;1.97;73.47;101261.30;104771;1274;71339;-83
2021/12/31 09:08:50;;;;;;;44.50;22.80;;;;;;;1.99;73.56;101259.86;104883;1273;68739;-81
2021/12/31 09:11:19;;;;;;;49.40;22.50;;;;;;;2.13;73.18;101262.59;104850;1273;74692;-81
2021/12/31 09:13:48;;;;;;;44.40;21.60;;;;;;;2.36;72.39;101262.09;104764;1274;61121;-81
2021/12/31 09:16:17;;;;;;;46.60;22.80;;;;;;;2.53;72.41;101264.52;104846;1273;59836;-78
2021/12/31 09:18:46;;;;;;;48.30;22.80;;;;;;;2.46;71.78;101266.95;104865;1273;74002;-79
2021/12/31 09:21:17;;;;;;;44.40;22.40;;;;;;;2.48;72.07;101266.52;104657;1275;71539;-75
2021/12/31 09:23:48;;;;;;;45.00;24.00;;;;;;;2.66;71.97;101267.35;104783;1272;68669;-76
2021/12/31 09:26:17;;;;;;;53.50;25.00;;;;;;;2.94;71.73;101264.63;104805;1272;73950;-78
2021/12/31 09:28:46;;;;;;;48.20;22.30;;;;;;;2.95;71.20;101267.48;104788;1269;59410;-72
2021/12/31 09:31:15;;;;;;;52.30;24.20;;;;;;;3.12;71.42;101269.88;104783;1272;59713;-72
2021/12/31 09:33:44;;;;;;;53.90;25.40;;;;;;;3.37;72.09;101270.60;104575;1275;74163;-71
2021/12/31 09:36:13;;;;;;;48.80;23.70;;;;;;;3.19;70.23;101269.30;104701;1270;71407;-70
2021/12/31 09:38:42;;;;;;;46.20;22.90;;;;;;;3.28;70.37;101259.70;104649;1274;69185;-70
2021/12/31 09:41:11;;;;;;;43.90;23.90;;;;;;;3.43;69.63;101261.77;104572;1270;72277;-71
2021/12/31 09:43:45;;;;;;;47.10;22.90;;;;;;;3.63;68.64;101265.06;104568;1270;58927;-69
2021/12/31 09:46:15;;;;;;;43.10;21.90;;;;;;;3.56;68.86;101261.31;104735;1275;60201;-71
2021/12/31 09:48:44;;;;;;;46.50;23.70;;;;;;;3.36;69.19;101257.17;104772;1273;71929;-71
2021/12/31 09:51:14;;;;;;;53.50;25.40;;;;;;;3.32;71.28;101257.69;104662;1273;70637;-71
2021/12/31 09:53:44;;;;;;;44.30;23.40;;;;;;;3.18;70.92;101247.98;104886;1273;70127;-71
2021/12/31 09:56:16;;;;;;;42.50;20.70;;;;;;;3.13;71.49;101244.55;104854;1269;71633;-75
2021/12/31 09:58:45;;;;;;;45.80;23.00;;;;;;;2.83;71.63;101241.73;104877;1271;63034;-72
2021/12/31 10:01:14;;;;;;;44.30;23.30;;;;;;;2.64;72.12;101240.25;104899;1273;62059;-74
2021/12/31 10:03:56;;;;;;;49.20;25.20;;;;;;;2.37;72.55;101235.91;104924;1274;73158;-75
2021/12/31 10:06:25;;;;;;;41.90;21.30;;;;;;;2.22;73.64;101230.20;104832;1270;72261;-77
2021/12/31 10:08:57;;;;;;;47.00;23.70;;;;;;;2.33;73.79;101231.39;104663;1272;70974;-89
2021/12/31 10:11:26;;;;;;;47.60;24.10;;;;;;;2.67;73.03;101230.19;104932;1272;73804;-78
2021/12/31 10:13:57;;;;;;;48.70;26.10;;;;;;;2.99;71.83;101236.21;104929;1273;59036;-79
2021/12/31 10:16:33;;;;;;;47.70;24.40;;;;;;;3.20;71.91;101234.32;105023;1270;61259;-76
2021/12/31 10:19:14;;;;;;;36.50;18.30;;;;;;;3.34;71.00;101235.06;104914;1274;74361;-69
2021/12/31 10:21:54;;;;;;;46.10;24.90;;;;;;;3.27;70.75;101225.30;104872;1274;70710;-71
2021/12/31 10:24:28;;;;;;;46.90;25.20;;;;;;;3.18;70.54;101217.17;104777;1270;71113;-71
2021/12/31 10:27:12;;;;;;;48.20;22.90;;;;;;;3.11;71.47;101221.71;104975;1270;73771;-69
2021/12/31 10:29:55;;;;;;;52.80;24.60;;;;;;;3.09;72.34;101231.40;105108;1270;62022;-81
2021/12/31 10:32:33;;;;;;;49.70;25.50;;;;;;;3.18;71.32;101228.02;105135;1272;61947;-78
2021/12/31 10:35:14;;;;;;;52.00;25.90;;;;;;;3.22;71.97;101219.10;104916;1273;71258;-78
2021/12/31 10:38:02;;;;;;;50.10;24.80;;;;;;;3.15;71.92;101214.17;105037;1273;71228;-89
2021/12/31 10:40:40;;;;;;;43.50;24.50;;;;;;;3.03;72.05;101210.98;104756;1274;70055;-83
2021/12/31 10:43:16;;;;;;;46.60;25.30;;;;;;;2.94;72.23;101210.92;104870;1273;73771;-81
2021/12/31 10:46:11;;;;;;;47.20;24.80;;;;;;;3.20;72.00;101215.20;104756;1272;60858;-81
2021/12/31 10:48:44;;;;;;;45.70;24.00;;;;;;;3.30;70.98;101215.03;104897;1276;59602;-81
2021/12/31 10:51:39;;;;;;;45.40;24.90;;;;;;;3.22;71.02;101213.26;104869;1270;73018;-81
2021/12/31 10:54:37;;;;;;;53.40;28.30;;;;;;;3.29;71.05;101212.16;104588;1274;72495;-84
2021/12/31 10:57:07;;;;;;;52.80;28.30;;;;;;;3.16;72.31;101205.20;104709;1275;71342;-83
2021/12/31 10:59:37;;;;;;;47.30;25.20;;;;;;;3.18;72.65;101199.28;104648;1274;75284;-81
2021/12/31 11:02:06;;;;;;;46.30;25.20;;;;;;;3.39;72.27;101192.00;104683;1272;63465;-81
2021/12/31 11:04:36;;;;;;;53.40;26.30;;;;;;;3.56;71.38;101194.02;104802;1274;60056;-81
2021/12/31 11:07:07;;;;;;;55.30;29.30;;;;;;;3.58;71.00;101193.77;104836;1272;72745;-72
2021/12/31 11:09:36;;;;;;;54.40;28.40;;;;;;;3.72;70.96;101194.62;104794;1271;71174;-85
2021/12/31 11:12:05;;;;;;;63.00;32.80;;;;;;;3.90;70.54;101188.80;104961;1273;68743;-85
2021/12/31 11:14:36;;;;;;;57.60;31.80;;;;;;;3.76;70.89;101181.20;105099;1270;71637;-83
2021/12/31 11:17:05;;;;;;;55.10;27.50;;;;;;;3.78;72.31;101188.89;104951;1272;59008;-87
2021/12/31 11:19:39;;;;;;;49.20;28.00;;;;;;;3.74;72.65;101192.49;104760;1274;59834;-85
2021/12/31 11:22:09;;;;;;;49.70;27.50;;;;;;;3.42;72.23;101192.08;105078;1269;71684;-82